Time;durP1;ratioP1;P1;durP2;ratioP2;P2;SDS_P1;SDS_P2;PMS_P1;PMS_P2;Temp;Humidity;BMP_temperature;BMP_pressure;BME280_temperature;BME280_humidity;BME280_pressure;Samples;Min_cycle;Max_cycle;Signal;HPM_P1;HPM_P2
2023/04/03 00:00:56;;;;;;;1.88;0.50;;;19.20;48.40;;;;;;4934953;29;20098;-61
2023/04/03 00:03:21;;;;;;;1.23;0.40;;;19.30;48.50;;;;;;4916673;29;20055;-60
2023/04/03 00:05:47;;;;;;;1.48;0.47;;;19.20;48.40;;;;;;4917936;29;20039;-61
2023/04/03 00:08:12;;;;;;;1.45;0.30;;;19.20;48.30;;;;;;4916802;29;20072;-60
2023/04/03 00:10:38;;;;;;;0.63;0.30;;;19.20;48.40;;;;;;4918596;29;20051;-61
2023/04/03 00:13:04;;;;;;;2.65;0.40;;;19.20;48.30;;;;;;4938112;29;20056;-60
2023/04/03 00:15:30;;;;;;;1.25;0.40;;;19.20;48.30;;;;;;4920730;29;20047;-60
2023/04/03 00:17:56;;;;;;;0.75;0.35;;;19.20;48.40;;;;;;4938478;29;20048;-61
2023/04/03 00:20:21;;;;;;;1.35;0.50;;;19.20;48.20;;;;;;4920983;29;20054;-60
2023/04/03 00:22:47;;;;;;;0.85;0.30;;;19.20;48.20;;;;;;4937829;29;20043;-60
2023/04/03 00:25:12;;;;;;;2.08;0.40;;;19.20;48.10;;;;;;4920844;29;20514;-60
2023/04/03 00:27:39;;;;;;;1.02;0.50;;;19.20;48.10;;;;;;4938565;29;20189;-60
2023/04/03 00:30:05;;;;;;;3.15;0.40;;;19.10;48.10;;;;;;4920371;29;20146;-60
2023/04/03 00:32:31;;;;;;;1.02;0.35;;;19.20;48.10;;;;;;4938253;29;20051;-61
2023/04/03 00:34:56;;;;;;;2.67;0.60;;;19.10;48.00;;;;;;4938334;29;20049;-60
2023/04/03 00:37:22;;;;;;;1.40;0.50;;;19.10;48.00;;;;;;4920090;29;20044;-61
2023/04/03 00:39:47;;;;;;;1.15;0.45;;;19.10;48.00;;;;;;4937872;29;20059;-60
2023/04/03 00:42:13;;;;;;;0.88;0.20;;;19.10;48.00;;;;;;4937525;29;20494;-60
2023/04/03 00:44:39;;;;;;;1.15;0.40;;;19.10;47.90;;;;;;4920198;29;20098;-60
2023/04/03 00:47:05;;;;;;;1.38;0.47;;;19.10;47.90;;;;;;4920505;29;20106;-60
2023/04/03 00:49:31;;;;;;;0.93;0.30;;;19.10;48.00;;;;;;4920952;29;20039;-60
2023/04/03 00:51:56;;;;;;;1.08;0.47;;;19.10;47.90;;;;;;4920076;29;20381;-60
2023/04/03 00:54:22;;;;;;;0.70;0.35;;;19.10;47.90;;;;;;4920445;29;20082;-61
2023/04/03 00:56:48;;;;;;;1.20;0.30;;;19.10;47.90;;;;;;4938007;29;20051;-60
2023/04/03 00:59:16;;;;;;;2.20;0.30;;;19.10;47.90;;;;;;4919749;29;20043;-60
2023/04/03 01:01:42;;;;;;;;;;;19.10;47.90;;;;;;4905566;29;20085;-60
2023/04/03 01:04:30;;;;;;;2.25;0.50;;;19.10;47.90;;;;;;4904529;29;19962;-61
2023/04/03 01:06:57;;;;;;;0.70;0.30;;;19.10;47.90;;;;;;4921715;29;20047;-60
2023/04/03 01:09:23;;;;;;;1.20;0.40;;;19.10;47.90;;;;;;4904762;29;20055;-61
2023/04/03 01:11:48;;;;;;;1.48;0.40;;;19.10;47.90;;;;;;4919841;29;20052;-61
2023/04/03 01:14:14;;;;;;;1.52;0.30;;;19.10;47.90;;;;;;4937272;29;20373;-60
2023/04/03 01:16:40;;;;;;;1.27;0.40;;;19.10;47.90;;;;;;4937366;29;20050;-60
2023/04/03 01:19:11;;;;;;;2.00;0.60;;;19.10;47.80;;;;;;4918828;29;20071;-61
2023/04/03 01:21:55;;;;;;;0.38;0.30;;;19.10;47.80;;;;;;4920473;29;20119;-60
2023/04/03 01:24:33;;;;;;;0.95;0.43;;;19.10;47.80;;;;;;4920354;29;20044;-60
2023/04/03 01:26:59;;;;;;;1.77;0.40;;;19.10;47.80;;;;;;4919449;29;20517;-60
2023/04/03 01:29:24;;;;;;;1.67;0.50;;;19.10;47.80;;;;;;4920033;29;20122;-60
2023/04/03 01:31:55;;;;;;;1.35;0.40;;;19.10;47.80;;;;;;4937142;29;20135;-61
2023/04/03 01:34:20;;;;;;;1.02;0.30;;;19.10;47.80;;;;;;4919305;29;20036;-60
2023/04/03 01:36:46;;;;;;;1.33;0.40;;;19.10;47.80;;;;;;4920035;29;20079;-60
2023/04/03 01:39:12;;;;;;;0.82;0.32;;;19.10;47.80;;;;;;4936893;29;20086;-60
2023/04/03 01:41:37;;;;;;;2.10;0.30;;;19.10;47.70;;;;;;4936398;29;20048;-60
2023/04/03 01:44:03;;;;;;;1.17;0.40;;;19.10;47.70;;;;;;4919289;29;20122;-60
2023/04/03 01:46:29;;;;;;;1.60;0.40;;;19.10;47.70;;;;;;4936708;29;20055;-61
2023/04/03 01:48:55;;;;;;;0.88;0.38;;;19.20;47.80;;;;;;4919417;29;20040;-60
2023/04/03 01:51:20;;;;;;;1.77;0.40;;;19.20;47.70;;;;;;4936746;29;20059;-60
2023/04/03 01:53:46;;;;;;;0.70;0.40;;;19.10;47.50;;;;;;4935983;29;20048;-60
2023/04/03 01:56:12;;;;;;;0.73;0.30;;;19.20;47.60;;;;;;4936186;29;20083;-60
2023/04/03 01:58:38;;;;;;;1.15;0.35;;;19.20;47.50;;;;;;4919511;29;20131;-60
2023/04/03 02:01:03;;;;;;;2.10;0.57;;;19.20;47.60;;;;;;4927536;29;20086;-60
2023/04/03 02:03:29;;;;;;;1.08;0.35;;;19.20;47.50;;;;;;4916289;29;20052;-60
2023/04/03 02:05:55;;;;;;;1.30;0.40;;;19.20;47.70;;;;;;4915695;29;20052;-61
2023/04/03 02:08:21;;;;;;;1.15;0.45;;;19.10;47.60;;;;;;4915326;29;20517;-60
2023/04/03 02:10:50;;;;;;;1.95;0.30;;;19.10;47.60;;;;;;4916168;29;20048;-61
2023/04/03 02:13:16;;;;;;;0.68;0.30;;;19.20;47.60;;;;;;4930948;29;20055;-60
2023/04/03 02:15:41;;;;;;;0.90;0.45;;;19.20;47.60;;;;;;4935771;29;20047;-60
2023/04/03 02:18:07;;;;;;;0.90;0.40;;;19.20;47.70;;;;;;4936034;29;20111;-61
2023/04/03 02:20:33;;;;;;;1.20;0.43;;;19.20;47.60;;;;;;4919145;29;20047;-60
2023/04/03 02:22:59;;;;;;;0.98;0.40;;;19.20;47.60;;;;;;4935229;29;20051;-60
2023/04/03 02:25:25;;;;;;;2.03;0.40;;;19.20;47.60;;;;;;4918947;29;20039;-61
2023/04/03 02:27:50;;;;;;;1.48;0.52;;;19.20;47.50;;;;;;4919270;29;20052;-60
2023/04/03 02:30:16;;;;;;;2.05;0.47;;;19.20;47.50;;;;;;4918028;29;20875;-60
2023/04/03 02:32:42;;;;;;;1.70;0.30;;;19.20;47.40;;;;;;4919067;29;20051;-61
2023/04/03 02:35:08;;;;;;;0.82;0.32;;;19.20;47.50;;;;;;4935341;29;20044;-60
2023/04/03 02:37:34;;;;;;;1.58;0.40;;;19.20;47.50;;;;;;4935438;29;20052;-60
2023/04/03 02:40:00;;;;;;;1.20;0.30;;;19.20;47.50;;;;;;4935383;29;20043;-60
2023/04/03 02:42:26;;;;;;;1.27;0.40;;;19.20;47.60;;;;;;4935987;29;20054;-61
2023/04/03 02:44:51;;;;;;;1.40;0.40;;;19.20;47.60;;;;;;4935147;29;20036;-60
2023/04/03 02:47:17;;;;;;;1.27;0.40;;;19.30;47.70;;;;;;4935722;29;20535;-60
2023/04/03 02:49:44;;;;;;;1.02;0.50;;;19.20;47.60;;;;;;4935805;29;20054;-60
2023/04/03 02:52:10;;;;;;;1.13;0.38;;;19.30;47.60;;;;;;4934617;29;20035;-60
2023/04/03 02:54:36;;;;;;;0.80;0.30;;;19.30;47.60;;;;;;4935537;29;20110;-60
2023/04/03 02:57:01;;;;;;;1.27;0.50;;;19.30;47.60;;;;;;4917888;29;20075;-60
2023/04/03 02:59:27;;;;;;;0.68;0.30;;;19.30;47.50;;;;;;4918517;29;20051;-60
2023/04/03 03:01:52;;;;;;;0.77;0.40;;;19.30;47.50;;;;;;4935814;29;20048;-60
2023/04/03 03:04:18;;;;;;;1.33;0.30;;;19.30;47.60;;;;;;4934768;29;20039;-60
2023/04/03 03:06:44;;;;;;;0.93;0.40;;;19.30;47.60;;;;;;4935514;29;20480;-61
2023/04/03 03:09:09;;;;;;;2.08;0.50;;;19.30;47.60;;;;;;4935503;29;20043;-60
2023/04/03 03:11:35;;;;;;;0.80;0.30;;;19.40;47.60;;;;;;4934574;29;20086;-61
2023/04/03 03:14:01;;;;;;;1.30;0.40;;;19.40;47.60;;;;;;4935426;29;20090;-60
2023/04/03 03:16:26;;;;;;;1.25;0.40;;;19.40;47.70;;;;;;4935609;29;20044;-60
2023/04/03 03:18:52;;;;;;;0.85;0.30;;;19.40;47.60;;;;;;4934680;29;20043;-61
2023/04/03 03:21:17;;;;;;;1.23;0.63;;;19.40;47.60;;;;;;4935248;29;20047;-60
2023/04/03 03:23:43;;;;;;;1.85;0.55;;;19.40;47.50;;;;;;4918472;29;20040;-60
2023/04/03 03:26:09;;;;;;;1.60;0.40;;;19.50;47.60;;;;;;4934139;29;20415;-60
2023/04/03 03:28:36;;;;;;;0.75;0.30;;;19.40;47.60;;;;;;4918192;29;20063;-60
2023/04/03 03:31:01;;;;;;;1.10;0.30;;;19.50;47.70;;;;;;4918114;29;20076;-61
2023/04/03 03:33:27;;;;;;;2.03;0.50;;;19.50;47.60;;;;;;4917780;29;20047;-61
2023/04/03 03:35:53;;;;;;;1.15;0.30;;;19.50;47.60;;;;;;4935609;29;20083;-60
2023/04/03 03:38:19;;;;;;;1.30;0.55;;;19.50;47.60;;;;;;4934835;29;20141;-60
2023/04/03 03:40:45;;;;;;;1.77;0.40;;;19.50;47.60;;;;;;4934471;29;20080;-61
2023/04/03 03:43:10;;;;;;;1.40;0.40;;;19.50;47.50;;;;;;4917928;29;20175;-60
2023/04/03 03:45:36;;;;;;;1.27;0.43;;;19.60;47.50;;;;;;4936027;29;20054;-61
2023/04/03 03:48:03;;;;;;;0.95;0.30;;;19.60;47.60;;;;;;4920836;29;20142;-61
2023/04/03 03:50:28;;;;;;;1.25;0.40;;;19.60;47.50;;;;;;4921916;29;20529;-60
2023/04/03 03:52:54;;;;;;;1.77;0.45;;;19.60;47.60;;;;;;4939038;29;20496;-60
2023/04/03 03:55:19;;;;;;;1.45;0.35;;;19.60;47.50;;;;;;4920530;29;20070;-60
2023/04/03 03:57:45;;;;;;;1.20;0.40;;;19.70;47.60;;;;;;4939094;29;20052;-60
2023/04/03 04:00:11;;;;;;;1.13;0.40;;;19.60;47.50;;;;;;4937038;29;20130;-60
2023/04/03 04:02:36;;;;;;;1.05;0.38;;;19.60;47.50;;;;;;4928193;29;20118;-60
2023/04/03 04:05:02;;;;;;;0.82;0.38;;;19.70;47.60;;;;;;4937635;29;20044;-60
2023/04/03 04:07:29;;;;;;;0.85;0.40;;;19.70;47.50;;;;;;4937156;29;20051;-60
2023/04/03 04:09:54;;;;;;;0.70;0.30;;;19.70;47.60;;;;;;4921526;29;20047;-60
2023/04/03 04:12:20;;;;;;;1.13;0.30;;;19.70;47.60;;;;;;4938088;29;20562;-60
2023/04/03 04:14:46;;;;;;;1.52;0.32;;;19.70;47.50;;;;;;4920750;29;20054;-60
2023/04/03 04:17:12;;;;;;;1.13;0.40;;;19.70;47.50;;;;;;4938457;29;20083;-61
2023/04/03 04:19:38;;;;;;;0.88;0.32;;;19.70;47.50;;;;;;4938403;29;20056;-60
2023/04/03 04:22:04;;;;;;;1.85;0.38;;;19.70;47.50;;;;;;4920492;29;20052;-60
2023/04/03 04:24:29;;;;;;;1.75;0.40;;;19.80;47.60;;;;;;4938502;29;20040;-60
2023/04/03 04:26:55;;;;;;;1.10;0.38;;;19.70;47.50;;;;;;4921148;29;20106;-60
2023/04/03 04:29:20;;;;;;;1.00;0.40;;;19.70;47.50;;;;;;4937569;29;20048;-60
2023/04/03 04:31:46;;;;;;;0.88;0.30;;;19.80;47.50;;;;;;4938359;29;20139;-60
2023/04/03 04:34:12;;;;;;;1.60;0.40;;;19.80;47.50;;;;;;4937834;29;20044;-60
2023/04/03 04:36:38;;;;;;;1.63;0.45;;;19.80;47.50;;;;;;4920410;29;20055;-60
2023/04/03 04:39:05;;;;;;;1.13;0.40;;;19.80;47.50;;;;;;4920592;29;20043;-60
2023/04/03 04:41:30;;;;;;;1.63;0.40;;;19.80;47.50;;;;;;4938023;29;20044;-60
2023/04/03 04:43:56;;;;;;;0.88;0.43;;;19.80;47.50;;;;;;4937353;29;20098;-60
2023/04/03 04:46:22;;;;;;;1.23;0.40;;;19.90;47.50;;;;;;4937906;29;20498;-60
2023/04/03 04:48:48;;;;;;;2.30;0.30;;;19.80;47.40;;;;;;4921098;29;20114;-60
2023/04/03 04:51:14;;;;;;;0.80;0.30;;;19.80;47.40;;;;;;4936918;29;20054;-61
2023/04/03 04:53:40;;;;;;;1.90;0.50;;;19.90;47.40;;;;;;4937704;29;20498;-60
2023/04/03 04:56:06;;;;;;;1.45;0.50;;;19.90;47.40;;;;;;4937384;29;20516;-60
2023/04/03 04:58:31;;;;;;;0.82;0.40;;;19.90;47.50;;;;;;4936922;29;20150;-60
2023/04/03 05:01:00;;;;;;;0.95;0.32;;;19.90;47.50;;;;;;4937693;29;20086;-60
2023/04/03 05:03:26;;;;;;;1.60;0.40;;;19.90;47.40;;;;;;4920151;29;20054;-60
2023/04/03 05:05:52;;;;;;;1.55;0.38;;;19.90;47.50;;;;;;4937393;29;20047;-60
2023/04/03 05:08:17;;;;;;;1.02;0.40;;;19.90;47.40;;;;;;4936997;29;20055;-60
2023/04/03 05:10:44;;;;;;;2.17;0.45;;;19.90;47.40;;;;;;4936925;29;20044;-60
2023/04/03 05:13:10;;;;;;;0.77;0.30;;;19.90;47.40;;;;;;4920099;29;20055;-60
2023/04/03 05:15:36;;;;;;;1.23;0.40;;;19.90;47.40;;;;;;4920694;29;20062;-60
2023/04/03 05:18:01;;;;;;;1.55;0.50;;;19.90;47.40;;;;;;4919281;29;20103;-60
2023/04/03 05:20:27;;;;;;;1.60;0.50;;;19.90;47.40;;;;;;4919701;29;20080;-60
2023/04/03 05:22:52;;;;;;;1.67;0.50;;;20.00;47.50;;;;;;4937509;29;20043;-60
2023/04/03 05:25:18;;;;;;;1.25;0.43;;;20.00;47.50;;;;;;4918971;29;20127;-60
2023/04/03 05:27:43;;;;;;;2.53;0.40;;;20.00;47.50;;;;;;4936999;29;20048;-60
2023/04/03 05:30:09;;;;;;;1.67;0.40;;;20.00;47.40;;;;;;4936878;29;20051;-60
2023/04/03 05:32:35;;;;;;;1.77;0.47;;;20.00;47.40;;;;;;4903581;29;20047;-60
2023/04/03 05:35:00;;;;;;;3.67;0.80;;;20.00;47.40;;;;;;4936947;29;20106;-60
2023/04/03 05:37:26;;;;;;;2.03;0.40;;;20.00;47.30;;;;;;4937190;29;20051;-60
2023/04/03 05:39:52;;;;;;;4.55;0.50;;;20.00;47.20;;;;;;4936116;29;20051;-61
2023/04/03 05:42:17;;;;;;;3.63;0.60;;;20.00;47.30;;;;;;4936772;29;20044;-59
2023/04/03 05:44:44;;;;;;;1.70;0.68;;;20.00;47.20;;;;;;4936973;29;20456;-59
2023/04/03 05:47:09;;;;;;;3.33;0.50;;;20.00;47.30;;;;;;4935764;29;20487;-61
2023/04/03 05:49:35;;;;;;;1.35;0.52;;;20.00;47.40;;;;;;4920137;29;20119;-60
2023/04/03 05:52:01;;;;;;;2.33;0.50;;;20.00;47.40;;;;;;4936547;29;20079;-60
2023/04/03 05:54:28;;;;;;;2.97;0.60;;;20.00;47.50;;;;;;4935949;29;20411;-60
2023/04/03 05:56:53;;;;;;;3.45;0.60;;;20.00;47.60;;;;;;4936840;29;20066;-60
2023/04/03 05:59:19;;;;;;;2.50;0.50;;;20.00;47.60;;;;;;4919223;29;20487;-60
2023/04/03 06:01:45;;;;;;;1.80;0.50;;;20.00;47.60;;;;;;4935840;29;20130;-60
2023/04/03 06:04:12;;;;;;;3.53;0.50;;;20.00;47.60;;;;;;4936163;29;20126;-60
2023/04/03 06:06:51;;;;;;;5.45;0.95;;;20.00;47.60;;;;;;4936371;29;20486;-60
2023/04/03 06:09:17;;;;;;;1.25;0.40;;;20.10;47.70;;;;;;4935520;29;20683;-59
2023/04/03 06:11:43;;;;;;;2.08;0.50;;;20.10;47.70;;;;;;4936353;29;20487;-60
2023/04/03 06:14:10;;;;;;;2.85;0.50;;;20.00;47.70;;;;;;4935466;29;20056;-60
2023/04/03 06:16:35;;;;;;;2.25;0.57;;;20.00;47.80;;;;;;4936181;29;20059;-60
2023/04/03 06:19:01;;;;;;;3.08;0.52;;;20.10;48.00;;;;;;4935870;29;20043;-60
2023/04/03 06:21:26;;;;;;;4.32;0.60;;;20.10;48.10;;;;;;4935362;29;20044;-60
2023/04/03 06:23:52;;;;;;;1.13;0.35;;;20.10;48.30;;;;;;4936433;29;20071;-60
2023/04/03 06:26:17;;;;;;;2.38;0.55;;;20.10;48.50;;;;;;4935887;29;20372;-60
2023/04/03 06:28:43;;;;;;;2.13;0.68;;;20.10;48.60;;;;;;4935341;29;20044;-60
2023/04/03 06:31:09;;;;;;;3.25;0.70;;;20.10;48.70;;;;;;4918871;29;20043;-62
2023/04/03 06:33:34;;;;;;;4.53;0.60;;;20.10;48.70;;;;;;4936122;29;20180;-61
2023/04/03 06:36:03;;;;;;;2.72;0.50;;;20.10;48.70;;;;;;4918309;29;20043;-61
2023/04/03 06:38:29;;;;;;;2.22;0.52;;;20.10;48.70;;;;;;4902982;29;20058;-59
2023/04/03 06:40:55;;;;;;;1.20;0.55;;;20.20;48.70;;;;;;4936056;29;20047;-59
2023/04/03 06:43:21;;;;;;;1.88;0.50;;;20.20;48.80;;;;;;4935178;29;20126;-60
2023/04/03 06:45:47;;;;;;;2.78;0.50;;;20.20;48.70;;;;;;4936132;29;20043;-60
2023/04/03 06:48:12;;;;;;;2.75;0.70;;;20.20;48.60;;;;;;4935328;29;20079;-60
2023/04/03 06:50:38;;;;;;;2.70;0.60;;;20.20;48.50;;;;;;4935034;29;20047;-60
2023/04/03 06:53:04;;;;;;;1.67;0.50;;;20.20;48.50;;;;;;4934615;29;20111;-59
2023/04/03 06:55:29;;;;;;;2.78;0.52;;;20.20;48.40;;;;;;4935588;29;20052;-60
2023/04/03 06:57:55;;;;;;;2.10;0.70;;;20.20;48.50;;;;;;4934972;29;20394;-60
2023/04/03 07:00:21;;;;;;;2.13;0.60;;;20.30;48.50;;;;;;4935075;29;20055;-60
2023/04/03 07:02:46;;;;;;;1.48;0.50;;;20.30;48.40;;;;;;4918470;29;20574;-59
2023/04/03 07:05:13;;;;;;;1.65;0.40;;;20.30;48.50;;;;;;4934607;29;20407;-59
2023/04/03 07:07:38;;;;;;;2.55;0.55;;;20.30;48.40;;;;;;4935316;29;20082;-60
2023/04/03 07:10:06;;;;;;;2.95;0.50;;;20.30;48.40;;;;;;4934193;29;20079;-61
2023/04/03 07:12:31;;;;;;;2.80;0.70;;;20.30;48.30;;;;;;4935141;29;20498;-61
2023/04/03 07:14:57;;;;;;;1.42;0.50;;;20.30;48.30;;;;;;4935602;29;20315;-60
2023/04/03 07:17:22;;;;;;;3.75;0.60;;;20.30;48.40;;;;;;4934637;29;20036;-61
2023/04/03 07:19:48;;;;;;;2.00;0.50;;;20.30;48.40;;;;;;4935138;29;20370;-61
2023/04/03 07:22:14;;;;;;;2.33;0.45;;;20.30;48.30;;;;;;4935157;29;20091;-60
2023/04/03 07:24:39;;;;;;;1.88;0.40;;;20.30;48.30;;;;;;4934930;29;20038;-60
2023/04/03 07:27:05;;;;;;;4.63;0.70;;;20.30;48.20;;;;;;4917062;29;20418;-60
2023/04/03 07:29:31;;;;;;;3.45;0.70;;;20.30;48.20;;;;;;4918063;29;20044;-60
2023/04/03 07:31:56;;;;;;;2.03;0.50;;;20.30;48.90;;;;;;4933764;29;20052;-60
2023/04/03 07:34:22;;;;;;;1.70;0.50;;;20.30;48.20;;;;;;4935043;29;20048;-60
2023/04/03 07:36:47;;;;;;;1.92;0.50;;;20.30;48.00;;;;;;4918327;29;20059;-59
2023/04/03 07:39:13;;;;;;;2.72;0.65;;;20.30;48.00;;;;;;4934296;29;20047;-60
2023/04/03 07:41:39;;;;;;;2.40;0.77;;;20.40;47.90;;;;;;4918474;29;20058;-60
2023/04/03 07:44:05;;;;;;;4.57;0.75;;;20.40;47.80;;;;;;4934979;29;20491;-60
2023/04/03 07:46:31;;;;;;;3.70;0.60;;;20.30;47.70;;;;;;4934540;29;20104;-60
2023/04/03 07:48:56;;;;;;;2.45;0.38;;;20.40;47.70;;;;;;4935548;29;20051;-60
2023/04/03 07:51:23;;;;;;;2.67;0.70;;;20.40;47.80;;;;;;4935609;29;20048;-60
2023/04/03 07:53:49;;;;;;;3.20;0.65;;;20.40;47.80;;;;;;4934449;29;20081;-60
2023/04/03 07:56:16;;;;;;;2.85;0.60;;;20.40;47.80;;;;;;4934984;29;20079;-61
2023/04/03 07:58:41;;;;;;;5.85;0.80;;;20.40;47.80;;;;;;4935168;29;20043;-60
2023/04/03 08:01:07;;;;;;;1.85;0.43;;;20.40;48.50;;;;;;4933177;29;20056;-61
2023/04/03 08:03:32;;;;;;;3.42;0.70;;;20.40;47.90;;;;;;4910008;29;20538;-61
2023/04/03 08:06:05;;;;;;;3.53;0.77;;;20.40;47.90;;;;;;4923962;29;20112;-61
2023/04/03 08:08:31;;;;;;;1.23;0.75;;;20.40;48.00;;;;;;4925636;29;20388;-61
2023/04/03 08:10:57;;;;;;;3.70;0.60;;;20.40;48.20;;;;;;4912885;29;20514;-63
2023/04/03 08:13:23;;;;;;;5.68;0.70;;;20.50;48.20;;;;;;4927440;29;20569;-62
2023/04/03 08:15:49;;;;;;;4.28;0.50;;;20.50;48.10;;;;;;4917107;29;20595;-62
2023/04/03 08:18:15;;;;;;;5.68;1.20;;;20.50;48.20;;;;;;4917341;29;20047;-61
2023/04/03 08:20:40;;;;;;;7.32;1.45;;;20.50;48.10;;;;;;4933987;29;20047;-62
2023/04/03 08:23:07;;;;;;;6.88;1.20;;;20.50;48.10;;;;;;4934885;29;20040;-62
2023/04/03 08:25:34;;;;;;;7.10;1.58;;;20.50;48.10;;;;;;4918084;29;20106;-61
2023/04/03 08:27:59;;;;;;;8.10;1.67;;;20.50;48.10;;;;;;4933880;29;20075;-61
2023/04/03 08:30:25;;;;;;;5.32;1.50;;;20.50;48.20;;;;;;4917844;29;20086;-61
2023/04/03 08:32:51;;;;;;;4.85;1.25;;;20.50;48.30;;;;;;4919977;29;20050;-61
2023/04/03 08:35:17;;;;;;;3.45;1.10;;;20.50;48.50;;;;;;4936049;29;20056;-61
2023/04/03 08:37:42;;;;;;;6.10;1.60;;;20.50;48.50;;;;;;4938352;29;20047;-60
2023/04/03 08:40:13;;;;;;;5.45;1.52;;;20.50;48.50;;;;;;4919626;29;20071;-59
2023/04/03 08:42:45;;;;;;;4.82;1.30;;;20.50;48.50;;;;;;4920634;29;20044;-61
2023/04/03 08:45:26;;;;;;;5.65;1.30;;;20.60;48.60;;;;;;4921034;29;20050;-60
2023/04/03 08:48:05;;;;;;;4.20;1.15;;;20.60;48.60;;;;;;4938346;29;20054;-60
2023/04/03 08:50:34;;;;;;;6.38;1.42;;;20.60;48.80;;;;;;4936811;29;20039;-60
2023/04/03 08:53:00;;;;;;;5.60;1.48;;;20.60;48.80;;;;;;4917020;29;20418;-61
2023/04/03 08:55:27;;;;;;;5.38;1.60;;;20.60;49.00;;;;;;4902008;29;20068;-60
2023/04/03 08:58:01;;;;;;;6.47;1.27;;;20.60;49.90;;;;;;4901411;29;20131;-60
2023/04/03 09:00:28;;;;;;;9.18;1.27;;;20.60;49.30;;;;;;4886384;29;20496;-60
2023/04/03 09:02:55;;;;;;;6.53;1.27;;;20.70;49.40;;;;;;4901344;29;20531;-62
2023/04/03 09:05:47;;;;;;;4.43;0.90;;;20.70;49.40;;;;;;4886023;29;20052;-60
2023/04/03 09:08:37;;;;;;;3.97;0.93;;;20.70;50.00;;;;;;4903370;29;20052;-61
2023/04/03 09:11:28;;;;;;;5.93;1.00;;;20.70;49.00;;;;;;4874732;29;20060;-60
2023/04/03 09:14:12;;;;;;;5.13;1.10;;;20.70;49.00;;;;;;4902399;29;20064;-60
2023/04/03 09:17:00;;;;;;;10.65;1.38;;;20.70;48.90;;;;;;4901667;29;20052;-60
2023/04/03 09:19:36;;;;;;;;;;;20.70;48.90;;;;;;4902381;29;20098;-60
2023/04/03 09:22:16;;;;;;;4.40;0.93;;;20.70;48.90;;;;;;4901300;29;19983;-60
2023/04/03 09:24:43;;;;;;;4.28;1.10;;;20.70;48.80;;;;;;4901430;29;20044;-61
2023/04/03 09:27:10;;;;;;;5.25;1.15;;;20.70;48.70;;;;;;4918100;29;20056;-61
2023/04/03 09:29:43;;;;;;;3.67;0.82;;;20.70;48.70;;;;;;4918444;29;20044;-61
2023/04/03 09:32:28;;;;;;;5.78;1.00;;;20.70;48.70;;;;;;4901471;29;20503;-59
2023/04/03 09:34:54;;;;;;;4.43;1.20;;;20.70;48.40;;;;;;4918179;29;20052;-59
2023/04/03 09:37:37;;;;;;;5.70;0.90;;;20.70;48.30;;;;;;4901252;29;20135;-59
2023/04/03 09:40:04;;;;;;;3.78;0.90;;;20.70;48.00;;;;;;4900280;29;20055;-59
2023/04/03 09:42:29;;;;;;;3.42;0.70;;;20.70;48.00;;;;;;4918070;29;20056;-59
2023/04/03 09:45:03;;;;;;;2.65;0.73;;;20.70;48.70;;;;;;4900809;29;20056;-60
2023/04/03 09:47:30;;;;;;;2.70;0.98;;;20.70;48.00;;;;;;4901138;29;20063;-61
2023/04/03 09:50:14;;;;;;;3.72;0.70;;;20.70;48.00;;;;;;4918170;29;20044;-60
2023/04/03 09:52:44;;;;;;;3.20;0.70;;;20.70;48.00;;;;;;4917127;29;20496;-61
2023/04/03 09:55:26;;;;;;;2.35;0.68;;;20.70;48.00;;;;;;4900695;29;20164;-61
2023/04/03 09:57:56;;;;;;;3.22;0.57;;;20.70;48.10;;;;;;4917764;29;20407;-61
2023/04/03 10:00:36;;;;;;;3.53;0.70;;;20.70;48.20;;;;;;4900162;29;20040;-61
2023/04/03 10:03:02;;;;;;;2.78;0.73;;;20.70;48.20;;;;;;4917603;29;20048;-61
2023/04/03 10:05:29;;;;;;;4.25;0.98;;;20.70;48.20;;;;;;4923353;29;20044;-61
2023/04/03 10:08:11;;;;;;;5.07;1.05;;;20.70;48.30;;;;;;4918353;29;20042;-61
2023/04/03 10:10:37;;;;;;;4.00;0.82;;;20.70;48.40;;;;;;4936279;29;20051;-61
2023/04/03 10:13:16;;;;;;;3.92;0.60;;;20.70;48.40;;;;;;4917624;29;20170;-61
2023/04/03 10:15:56;;;;;;;3.10;0.70;;;20.70;48.50;;;;;;4936387;29;20040;-60
2023/04/03 10:18:29;;;;;;;3.40;0.80;;;20.70;48.50;;;;;;4920247;29;20059;-60
2023/04/03 10:20:55;;;;;;;3.03;0.60;;;20.70;48.50;;;;;;4916791;29;20496;-60
2023/04/03 10:23:26;;;;;;;2.13;0.57;;;20.70;48.60;;;;;;4918838;29;20047;-60
2023/04/03 10:26:32;;;;;;;1.85;0.55;;;20.70;48.60;;;;;;4900919;29;20055;-60
2023/04/03 10:29:21;;;;;;;1.73;0.65;;;20.70;48.70;;;;;;4908810;29;20052;-60
2023/04/03 10:31:59;;;;;;;1.73;0.70;;;20.70;48.70;;;;;;4935998;29;20052;-60
2023/04/03 10:34:42;;;;;;;2.17;0.77;;;20.70;48.70;;;;;;4935393;29;20065;-60
2023/04/03 10:37:18;;;;;;;2.95;0.63;;;20.60;48.70;;;;;;4920381;29;20059;-59
2023/04/03 10:39:50;;;;;;;2.25;0.70;;;20.70;48.80;;;;;;4919347;29;20040;-60
2023/04/03 10:42:32;;;;;;;1.95;0.60;;;20.60;48.80;;;;;;4934902;29;20054;-60
2023/04/03 10:45:08;;;;;;;3.38;0.80;;;20.70;48.90;;;;;;4935672;29;20043;-60
2023/04/03 10:47:46;;;;;;;1.02;0.47;;;20.70;49.00;;;;;;4935975;29;20040;-60
2023/04/03 10:50:27;;;;;;;1.17;0.50;;;20.70;49.00;;;;;;4918971;29;20102;-60
2023/04/03 10:53:03;;;;;;;2.25;0.50;;;20.70;49.10;;;;;;4936147;29;20039;-60
2023/04/03 10:55:58;;;;;;;4.03;0.70;;;20.70;49.10;;;;;;4902738;29;20106;-60
2023/04/03 10:58:43;;;;;;;3.13;0.80;;;20.70;49.20;;;;;;4936065;29;20055;-60
2023/04/03 11:01:12;;;;;;;2.30;0.50;;;20.70;49.10;;;;;;4935686;29;20058;-60
2023/04/03 11:03:41;;;;;;;;;;;20.70;49.30;;;;;;4918928;29;20051;-60
2023/04/03 11:06:09;;;;;;;1.67;0.57;;;20.70;49.10;;;;;;4902616;29;19974;-60
2023/04/03 11:08:39;;;;;;;3.88;0.60;;;20.60;49.10;;;;;;4918605;29;20051;-60
2023/04/03 11:11:32;;;;;;;3.25;0.80;;;20.60;49.10;;;;;;4902198;29;20090;-59
2023/04/03 11:14:21;;;;;;;2.10;0.65;;;20.70;49.20;;;;;;4926307;29;20056;-59
2023/04/03 11:16:48;;;;;;;1.63;0.50;;;20.70;49.10;;;;;;4924624;29;20083;-60
2023/04/03 11:19:24;;;;;;;2.13;0.43;;;20.60;49.10;;;;;;4934926;29;20058;-59
2023/04/03 11:21:57;;;;;;;1.95;0.45;;;20.60;49.10;;;;;;4919034;29;20059;-60
2023/04/03 11:24:25;;;;;;;1.70;0.40;;;20.70;49.10;;;;;;4902412;29;20047;-60
2023/04/03 11:26:51;;;;;;;1.63;0.35;;;20.70;49.80;;;;;;4918756;29;20052;-60
2023/04/03 11:29:19;;;;;;;2.00;0.60;;;20.60;49.10;;;;;;4902444;29;20048;-59
2023/04/03 11:32:02;;;;;;;2.33;0.60;;;20.60;49.10;;;;;;4917939;29;20122;-60
2023/04/03 11:34:41;;;;;;;2.78;0.65;;;20.60;49.00;;;;;;4918773;29;20055;-60
2023/04/03 11:37:21;;;;;;;1.27;0.40;;;20.70;49.00;;;;;;4935137;29;20048;-60
2023/04/03 11:39:53;;;;;;;3.95;0.82;;;20.60;48.90;;;;;;4918834;29;20048;-59
2023/04/03 11:42:27;;;;;;;3.55;0.50;;;20.60;49.00;;;;;;4902235;29;20051;-60
2023/04/03 11:45:24;;;;;;;1.83;0.60;;;20.60;49.00;;;;;;4917799;29;20114;-59
2023/04/03 11:47:54;;;;;;;2.17;0.40;;;20.60;48.90;;;;;;4934478;29;20044;-60
2023/04/03 11:50:41;;;;;;;1.58;0.50;;;20.60;48.90;;;;;;4934838;29;20050;-60
2023/04/03 11:53:06;;;;;;;1.70;0.50;;;20.60;48.90;;;;;;4934371;29;20102;-59
2023/04/03 11:55:32;;;;;;;1.73;0.50;;;20.60;48.90;;;;;;4935428;29;20455;-59
2023/04/03 11:57:58;;;;;;;1.17;0.40;;;20.60;48.90;;;;;;4934828;29;20514;-60
2023/04/03 12:00:57;;;;;;;2.13;0.50;;;20.60;49.00;;;;;;4934578;29;20043;-60
2023/04/03 12:03:23;;;;;;;2.72;0.40;;;20.60;49.00;;;;;;4935402;29;20098;-59
2023/04/03 12:06:02;;;;;;;1.83;0.60;;;20.60;49.00;;;;;;4934542;29;20043;-60
2023/04/03 12:08:29;;;;;;;1.40;0.35;;;20.60;49.00;;;;;;4938510;29;20092;-60
2023/04/03 12:11:21;;;;;;;2.58;0.50;;;20.60;49.00;;;;;;4938812;29;20056;-60
2023/04/03 12:13:49;;;;;;;0.93;0.40;;;20.60;49.10;;;;;;4892100;29;20087;-60
2023/04/03 12:16:41;;;;;;;3.20;0.93;;;20.60;49.10;;;;;;4938321;29;20075;-60
2023/04/03 12:19:30;;;;;;;1.75;0.40;;;20.60;49.10;;;;;;4938591;29;20044;-60
2023/04/03 12:21:57;;;;;;;2.05;0.30;;;20.60;49.10;;;;;;4938562;29;20506;-59
2023/04/03 12:24:39;;;;;;;2.30;0.40;;;20.60;49.10;;;;;;4938745;29;20043;-59
2023/04/03 12:27:19;;;;;;;2.53;0.57;;;20.60;49.10;;;;;;4920585;29;20044;-59
2023/04/03 12:30:03;;;;;;;1.67;0.30;;;20.60;49.20;;;;;;4938406;29;20047;-59
2023/04/03 12:32:47;;;;;;;1.05;0.40;;;20.60;49.20;;;;;;4921280;29;20403;-59
2023/04/03 12:35:48;;;;;;;1.58;0.40;;;20.60;49.10;;;;;;4937289;29;20044;-59
2023/04/03 12:38:38;;;;;;;0.70;0.50;;;20.50;49.10;;;;;;4897312;29;20094;-59
2023/04/03 12:41:26;;;;;;;1.38;0.40;;;20.60;49.20;;;;;;4922793;29;20051;-59
2023/04/03 12:44:00;;;;;;;2.08;0.40;;;20.60;49.10;;;;;;4938112;29;20040;-59
2023/04/03 12:46:28;;;;;;;1.35;0.32;;;20.60;49.20;;;;;;4921099;29;20047;-59
2023/04/03 12:48:55;;;;;;;;;;;20.50;49.10;;;;;;4905613;29;20044;-59
2023/04/03 12:51:41;;;;;;;1.15;0.35;;;20.50;49.20;;;;;;4937947;29;20393;-60
2023/04/03 12:54:37;;;;;;;1.88;0.40;;;20.50;49.20;;;;;;4920883;29;20054;-59
2023/04/03 12:57:10;;;;;;;1.88;0.40;;;20.50;49.20;;;;;;4920084;29;20130;-60
2023/04/03 12:59:36;;;;;;;1.33;0.30;;;20.50;49.20;;;;;;4937985;29;20098;-59